Greenville Spartanburg International Airport
KGSP : rendu visible

Aérodrome :











RETROUVEZ-NOUS SUR...

 
LOGIN :

S'inscrire | Disclaimer

   EN    FR    IT 

 









Légende :    VFR   VFR Marginal   IFR   IFR Intensif   IFR Très Intensif
Visi : 
Plafond : 
>= 8 km
>= 3000ft
5 à 8 km
1000 à 3000 ft
1500m à 5 km
500 à 1000 ft
800 à 1500m
200 à 500 ft
< 800m
< 200 ft
Symboles :   Orages  Brouillard  Fortes neiges  Fortes précipitations  Vent > 20 kt






- Altitude de l'aérodrome : 964 ft
- Code IATA : GSP


KGSP - Greenville Spartanburg International

DERNIER METAR :
  • 201953Z 02007KT 7SM -RA BKN006 BKN010 OVC021 02/01 A3029 RMK AO2 SLP258 P0005 T00220006

METARs EXPIRÉS :
  • 201853Z 01006KT 5SM RA BR BKN008 BKN037 OVC050 02/01 A3030 RMK AO2 SLP265 P0007 T00220006
  • 201837Z 01008KT 5SM -RA BR FEW008 SCT036 OVC048 02/01 A3031 RMK AO2 P0005 T00220006
  • 201753Z 02010KT 8SM -RA OVC048 03/01 A3031 RMK AO2 SLP267 P0003 60007 T00330011 10061 20033 58008

TAF KGSP
Valide du 20 à 19h jusqu'au 21 à 18h UTC


201925Z 2019/2118 02008KT 4SM -RASN BR BKN008 OVC030
FM202100 03008KT 2SM -SN BR OVC007
TEMPO 2021/2024 1SM -SN BR OVC004
FM210300 03008KT 6SM BR OVC010
FM210600 02007KT P6SM BKN040
FM211300 02010G18KT P6SM SKC



MET'MAP, la Météo Aéronautique d'un coup d'oeil ! - Copyright ORBIFLY Décembre 2007 - Disclaimer

ORBIFLY MET'MAP TEAM :

Programmation & Développement : Alexandra Zaïnal
Sur une idée originale de : Baudouin d'Aumeries
Assistance à la programmation : Marc-Olivier Méhu
Soutien technique & logistique : Manuel Goepfert

Contact : metmap@orbifly.com




SOURCES & CREDITS :

   NOAA       Earth
Advisory